Goldston, North Carolina
Current Conditions -  °F | °C
As of 12:55 PM on Friday 31 Oct 2014 (Local Time) from K5W8 Reporting Station
Overcast Overcast  
Wind Chill: 59°   Ceiling: 3600
Heat Index: 59°   Visibility: 10mi
Dew Point: 43°   Wind: 5mph
Humidity: 55%   Direction: 30°NNE
Pressure: 29.89"   Gusts: NA
Location:  35.59°N, 79.33°W
Report Text: K5W8 311655Z AUTO 03004KT 10SM OVC036 15/06 A2989 RMK AO2 T01520061
Loading
Personal Weather Stations






























Interactive Weather Map
Tropical Storm Tracking
New forecast layout! Learn more

10-Day Weather Forecast

Advertisements
Track Severe Weather on mobile